Aviation Digital Data Service (ADDS)

Output produced by TAFs form (0017 UTC 25 September 2016)
found at http://aviationweather.gov/adds/tafs/
 
KDRO 242343Z 2500/2524 26012KT P6SM OVC080 
     FM250200 32005KT P6SM SCT250 
     FM251100 02004KT P6SM FEW250 
     FM251700 12005KT P6SM SKC 
     FM252000 21005KT P6SM FEW250